sensor_id;sensor_type;location;lat;lon;timestamp;P1;durP1;ratioP1;P2;durP2;ratioP2
26977;SDS011;56314;48.088;11.642;2023-05-21T00:01:12;8.15;;;6.28;;
26977;SDS011;56314;48.088;11.642;2023-05-21T00:03:40;8.95;;;5.97;;
26977;SDS011;56314;48.088;11.642;2023-05-21T00:06:06;8.18;;;6.22;;
26977;SDS011;56314;48.088;11.642;2023-05-21T00:08:32;9.18;;;5.85;;
26977;SDS011;56314;48.088;11.642;2023-05-21T00:10:58;7.13;;;5.38;;
26977;SDS011;56314;48.088;11.642;2023-05-21T00:13:23;7.25;;;5.70;;
26977;SDS011;56314;48.088;11.642;2023-05-21T00:15:49;7.28;;;5.35;;
26977;SDS011;56314;48.088;11.642;2023-05-21T00:18:14;6.88;;;5.53;;
26977;SDS011;56314;48.088;11.642;2023-05-21T00:20:40;9.50;;;5.57;;
26977;SDS011;56314;48.088;11.642;2023-05-21T00:23:05;6.53;;;5.60;;
26977;SDS011;56314;48.088;11.642;2023-05-21T00:25:31;8.38;;;5.65;;
26977;SDS011;56314;48.088;11.642;2023-05-21T00:27:57;8.45;;;5.43;;
26977;SDS011;56314;48.088;11.642;2023-05-21T00:30:23;9.63;;;6.28;;
26977;SDS011;56314;48.088;11.642;2023-05-21T00:32:48;8.50;;;6.07;;
26977;SDS011;56314;48.088;11.642;2023-05-21T00:35:14;7.72;;;5.05;;
26977;SDS011;56314;48.088;11.642;2023-05-21T00:37:40;8.98;;;6.78;;
26977;SDS011;56314;48.088;11.642;2023-05-21T00:40:05;7.93;;;5.78;;
26977;SDS011;56314;48.088;11.642;2023-05-21T00:42:35;7.57;;;5.90;;
26977;SDS011;56314;48.088;11.642;2023-05-21T00:45:04;8.35;;;6.00;;
26977;SDS011;56314;48.088;11.642;2023-05-21T00:47:31;7.35;;;6.32;;
26977;SDS011;56314;48.088;11.642;2023-05-21T00:49:57;7.85;;;5.80;;
26977;SDS011;56314;48.088;11.642;2023-05-21T00:52:23;9.30;;;6.47;;
26977;SDS011;56314;48.088;11.642;2023-05-21T00:54:51;6.90;;;5.57;;
26977;SDS011;56314;48.088;11.642;2023-05-21T00:57:17;7.60;;;5.72;;
26977;SDS011;56314;48.088;11.642;2023-05-21T00:59:45;9.50;;;6.65;;
26977;SDS011;56314;48.088;11.642;2023-05-21T01:02:12;10.18;;;5.85;;
26977;SDS011;56314;48.088;11.642;2023-05-21T01:04:38;6.30;;;5.45;;
26977;SDS011;56314;48.088;11.642;2023-05-21T01:07:03;6.85;;;5.10;;
26977;SDS011;56314;48.088;11.642;2023-05-21T01:09:30;7.75;;;5.57;;
26977;SDS011;56314;48.088;11.642;2023-05-21T01:11:56;6.63;;;5.10;;
26977;SDS011;56314;48.088;11.642;2023-05-21T01:14:24;6.93;;;5.47;;
26977;SDS011;56314;48.088;11.642;2023-05-21T01:16:49;9.05;;;6.20;;
26977;SDS011;56314;48.088;11.642;2023-05-21T01:19:17;8.05;;;5.88;;
26977;SDS011;56314;48.088;11.642;2023-05-21T01:21:44;7.95;;;5.25;;
26977;SDS011;56314;48.088;11.642;2023-05-21T01:24:13;7.68;;;5.63;;
26977;SDS011;56314;48.088;11.642;2023-05-21T01:26:39;8.10;;;5.70;;
26977;SDS011;56314;48.088;11.642;2023-05-21T01:29:09;7.85;;;5.15;;
26977;SDS011;56314;48.088;11.642;2023-05-21T01:31:47;6.38;;;5.43;;
26977;SDS011;56314;48.088;11.642;2023-05-21T01:34:21;7.90;;;5.43;;
26977;SDS011;56314;48.088;11.642;2023-05-21T01:36:56;7.35;;;5.45;;
26977;SDS011;56314;48.088;11.642;2023-05-21T01:39:33;6.63;;;5.03;;
26977;SDS011;56314;48.088;11.642;2023-05-21T01:42:02;7.85;;;5.45;;
26977;SDS011;56314;48.088;11.642;2023-05-21T01:44:32;8.80;;;6.18;;
26977;SDS011;56314;48.088;11.642;2023-05-21T01:46:59;9.35;;;5.53;;
26977;SDS011;56314;48.088;11.642;2023-05-21T01:49:26;8.77;;;5.57;;
26977;SDS011;56314;48.088;11.642;2023-05-21T01:51:52;10.20;;;5.88;;
26977;SDS011;56314;48.088;11.642;2023-05-21T01:54:18;7.82;;;5.10;;
26977;SDS011;56314;48.088;11.642;2023-05-21T01:56:43;5.57;;;4.68;;
26977;SDS011;56314;48.088;11.642;2023-05-21T01:59:08;8.95;;;5.00;;
26977;SDS011;56314;48.088;11.642;2023-05-21T02:01:34;7.93;;;5.72;;
26977;SDS011;56314;48.088;11.642;2023-05-21T02:03:59;8.20;;;5.70;;
26977;SDS011;56314;48.088;11.642;2023-05-21T02:06:25;6.93;;;5.25;;
26977;SDS011;56314;48.088;11.642;2023-05-21T02:08:50;6.70;;;4.70;;
26977;SDS011;56314;48.088;11.642;2023-05-21T02:11:16;6.47;;;5.20;;
26977;SDS011;56314;48.088;11.642;2023-05-21T02:13:41;7.28;;;5.80;;
26977;SDS011;56314;48.088;11.642;2023-05-21T02:16:07;8.50;;;5.40;;
26977;SDS011;56314;48.088;11.642;2023-05-21T02:18:39;9.10;;;4.70;;
26977;SDS011;56314;48.088;11.642;2023-05-21T02:21:07;7.72;;;5.80;;
26977;SDS011;56314;48.088;11.642;2023-05-21T02:23:34;6.05;;;5.20;;
26977;SDS011;56314;48.088;11.642;2023-05-21T02:26:00;6.90;;;5.70;;
26977;SDS011;56314;48.088;11.642;2023-05-21T02:28:25;7.43;;;6.00;;
26977;SDS011;56314;48.088;11.642;2023-05-21T02:30:51;7.03;;;5.75;;
26977;SDS011;56314;48.088;11.642;2023-05-21T02:33:16;7.22;;;5.35;;
26977;SDS011;56314;48.088;11.642;2023-05-21T02:35:43;8.50;;;5.50;;
26977;SDS011;56314;48.088;11.642;2023-05-21T02:38:09;9.80;;;6.65;;
26977;SDS011;56314;48.088;11.642;2023-05-21T02:40:34;6.97;;;5.63;;
26977;SDS011;56314;48.088;11.642;2023-05-21T02:42:59;7.22;;;5.82;;
26977;SDS011;56314;48.088;11.642;2023-05-21T02:45:25;9.02;;;5.85;;
26977;SDS011;56314;48.088;11.642;2023-05-21T02:47:50;9.32;;;6.82;;
26977;SDS011;56314;48.088;11.642;2023-05-21T02:50:15;8.02;;;5.80;;
26977;SDS011;56314;48.088;11.642;2023-05-21T02:52:41;8.27;;;5.43;;
26977;SDS011;56314;48.088;11.642;2023-05-21T02:55:06;7.47;;;5.40;;
26977;SDS011;56314;48.088;11.642;2023-05-21T02:57:32;8.25;;;5.47;;
26977;SDS011;56314;48.088;11.642;2023-05-21T02:59:57;7.63;;;5.75;;
26977;SDS011;56314;48.088;11.642;2023-05-21T03:02:22;7.43;;;5.53;;
26977;SDS011;56314;48.088;11.642;2023-05-21T03:04:48;8.00;;;5.85;;
26977;SDS011;56314;48.088;11.642;2023-05-21T03:07:15;6.63;;;5.05;;
26977;SDS011;56314;48.088;11.642;2023-05-21T03:09:43;9.60;;;6.32;;
26977;SDS011;56314;48.088;11.642;2023-05-21T03:12:09;7.50;;;5.78;;
26977;SDS011;56314;48.088;11.642;2023-05-21T03:14:35;8.32;;;6.32;;
26977;SDS011;56314;48.088;11.642;2023-05-21T03:17:00;7.22;;;5.05;;
26977;SDS011;56314;48.088;11.642;2023-05-21T03:19:29;7.00;;;4.70;;
26977;SDS011;56314;48.088;11.642;2023-05-21T03:21:58;6.43;;;5.13;;
26977;SDS011;56314;48.088;11.642;2023-05-21T03:24:24;8.55;;;5.90;;
26977;SDS011;56314;48.088;11.642;2023-05-21T03:26:50;7.82;;;5.72;;
26977;SDS011;56314;48.088;11.642;2023-05-21T03:29:15;7.47;;;5.38;;
26977;SDS011;56314;48.088;11.642;2023-05-21T03:31:40;8.27;;;6.13;;
26977;SDS011;56314;48.088;11.642;2023-05-21T03:34:06;6.35;;;5.15;;
26977;SDS011;56314;48.088;11.642;2023-05-21T03:36:32;7.63;;;5.85;;
26977;SDS011;56314;48.088;11.642;2023-05-21T03:38:58;6.38;;;5.28;;
26977;SDS011;56314;48.088;11.642;2023-05-21T03:41:23;9.10;;;5.40;;
26977;SDS011;56314;48.088;11.642;2023-05-21T03:43:48;9.20;;;5.45;;
26977;SDS011;56314;48.088;11.642;2023-05-21T03:46:14;7.53;;;5.72;;
26977;SDS011;56314;48.088;11.642;2023-05-21T03:48:39;6.70;;;5.55;;
26977;SDS011;56314;48.088;11.642;2023-05-21T03:51:05;6.47;;;5.30;;
26977;SDS011;56314;48.088;11.642;2023-05-21T03:53:32;6.95;;;5.68;;
26977;SDS011;56314;48.088;11.642;2023-05-21T03:55:58;7.43;;;5.82;;
26977;SDS011;56314;48.088;11.642;2023-05-21T03:58:23;8.50;;;5.68;;
26977;SDS011;56314;48.088;11.642;2023-05-21T04:00:49;8.50;;;5.78;;
26977;SDS011;56314;48.088;11.642;2023-05-21T04:03:15;7.95;;;5.28;;
26977;SDS011;56314;48.088;11.642;2023-05-21T04:05:43;9.20;;;6.35;;
26977;SDS011;56314;48.088;11.642;2023-05-21T04:08:09;7.88;;;5.70;;
26977;SDS011;56314;48.088;11.642;2023-05-21T04:10:34;11.05;;;6.63;;
26977;SDS011;56314;48.088;11.642;2023-05-21T04:12:59;8.82;;;5.93;;
26977;SDS011;56314;48.088;11.642;2023-05-21T04:15:25;9.77;;;5.63;;
26977;SDS011;56314;48.088;11.642;2023-05-21T04:17:51;8.45;;;6.70;;
26977;SDS011;56314;48.088;11.642;2023-05-21T04:20:18;7.07;;;5.50;;
26977;SDS011;56314;48.088;11.642;2023-05-21T04:22:44;8.68;;;6.32;;
26977;SDS011;56314;48.088;11.642;2023-05-21T04:25:09;8.15;;;5.78;;
26977;SDS011;56314;48.088;11.642;2023-05-21T04:27:35;9.00;;;5.82;;
26977;SDS011;56314;48.088;11.642;2023-05-21T04:30:01;6.00;;;5.20;;
26977;SDS011;56314;48.088;11.642;2023-05-21T04:32:28;8.05;;;5.72;;
26977;SDS011;56314;48.088;11.642;2023-05-21T04:34:54;7.22;;;5.43;;
26977;SDS011;56314;48.088;11.642;2023-05-21T04:37:20;9.45;;;6.32;;
26977;SDS011;56314;48.088;11.642;2023-05-21T04:39:48;7.57;;;5.93;;
26977;SDS011;56314;48.088;11.642;2023-05-21T04:42:14;8.23;;;6.13;;
26977;SDS011;56314;48.088;11.642;2023-05-21T04:44:39;8.68;;;6.15;;
26977;SDS011;56314;48.088;11.642;2023-05-21T04:47:04;8.38;;;5.82;;
26977;SDS011;56314;48.088;11.642;2023-05-21T04:49:30;8.60;;;5.68;;
26977;SDS011;56314;48.088;11.642;2023-05-21T04:51:55;8.98;;;5.82;;
26977;SDS011;56314;48.088;11.642;2023-05-21T04:54:21;7.30;;;5.30;;
26977;SDS011;56314;48.088;11.642;2023-05-21T04:56:47;9.40;;;6.10;;
26977;SDS011;56314;48.088;11.642;2023-05-21T04:59:12;7.35;;;5.40;;
26977;SDS011;56314;48.088;11.642;2023-05-21T05:01:38;7.75;;;5.55;;
26977;SDS011;56314;48.088;11.642;2023-05-21T05:04:04;7.93;;;5.95;;
26977;SDS011;56314;48.088;11.642;2023-05-21T05:06:29;6.65;;;5.25;;
26977;SDS011;56314;48.088;11.642;2023-05-21T05:08:55;7.63;;;6.05;;
26977;SDS011;56314;48.088;11.642;2023-05-21T05:11:21;7.80;;;5.88;;
26977;SDS011;56314;48.088;11.642;2023-05-21T05:13:46;7.45;;;5.57;;
26977;SDS011;56314;48.088;11.642;2023-05-21T05:16:11;9.43;;;5.35;;
26977;SDS011;56314;48.088;11.642;2023-05-21T05:18:38;9.77;;;5.53;;
26977;SDS011;56314;48.088;11.642;2023-05-21T05:21:04;8.60;;;5.55;;
26977;SDS011;56314;48.088;11.642;2023-05-21T05:23:29;6.43;;;5.05;;
26977;SDS011;56314;48.088;11.642;2023-05-21T05:25:54;10.00;;;5.20;;
26977;SDS011;56314;48.088;11.642;2023-05-21T05:28:20;7.82;;;5.15;;
26977;SDS011;56314;48.088;11.642;2023-05-21T05:30:45;9.32;;;5.43;;
26977;SDS011;56314;48.088;11.642;2023-05-21T05:33:11;6.85;;;5.22;;
26977;SDS011;56314;48.088;11.642;2023-05-21T05:35:36;7.03;;;5.25;;
26977;SDS011;56314;48.088;11.642;2023-05-21T05:38:02;6.90;;;5.35;;
26977;SDS011;56314;48.088;11.642;2023-05-21T05:40:27;6.97;;;5.00;;
26977;SDS011;56314;48.088;11.642;2023-05-21T05:42:52;6.82;;;5.10;;
26977;SDS011;56314;48.088;11.642;2023-05-21T05:45:18;9.43;;;5.72;;
26977;SDS011;56314;48.088;11.642;2023-05-21T05:47:44;7.30;;;5.28;;
26977;SDS011;56314;48.088;11.642;2023-05-21T05:50:10;9.10;;;4.82;;
26977;SDS011;56314;48.088;11.642;2023-05-21T05:52:35;6.88;;;5.28;;
26977;SDS011;56314;48.088;11.642;2023-05-21T05:55:01;8.27;;;5.53;;
26977;SDS011;56314;48.088;11.642;2023-05-21T05:57:27;6.45;;;5.07;;
26977;SDS011;56314;48.088;11.642;2023-05-21T05:59:52;5.78;;;4.80;;
26977;SDS011;56314;48.088;11.642;2023-05-21T06:02:17;8.63;;;5.22;;
26977;SDS011;56314;48.088;11.642;2023-05-21T06:04:43;7.47;;;5.32;;
26977;SDS011;56314;48.088;11.642;2023-05-21T06:07:08;8.38;;;4.78;;
26977;SDS011;56314;48.088;11.642;2023-05-21T06:09:33;6.25;;;5.53;;
26977;SDS011;56314;48.088;11.642;2023-05-21T06:11:59;6.93;;;5.15;;
26977;SDS011;56314;48.088;11.642;2023-05-21T06:14:25;5.35;;;4.85;;
26977;SDS011;56314;48.088;11.642;2023-05-21T06:16:50;5.70;;;4.43;;
26977;SDS011;56314;48.088;11.642;2023-05-21T06:19:15;5.13;;;4.05;;
26977;SDS011;56314;48.088;11.642;2023-05-21T06:21:41;7.00;;;4.85;;
26977;SDS011;56314;48.088;11.642;2023-05-21T06:24:06;5.53;;;4.55;;
26977;SDS011;56314;48.088;11.642;2023-05-21T06:26:31;6.38;;;5.20;;
26977;SDS011;56314;48.088;11.642;2023-05-21T06:28:57;5.20;;;4.53;;
26977;SDS011;56314;48.088;11.642;2023-05-21T06:31:22;5.95;;;4.68;;
26977;SDS011;56314;48.088;11.642;2023-05-21T06:33:48;6.65;;;5.20;;
26977;SDS011;56314;48.088;11.642;2023-05-21T06:36:14;6.95;;;4.82;;
26977;SDS011;56314;48.088;11.642;2023-05-21T06:38:40;5.75;;;4.85;;
26977;SDS011;56314;48.088;11.642;2023-05-21T06:41:06;4.68;;;4.18;;
26977;SDS011;56314;48.088;11.642;2023-05-21T06:43:32;4.55;;;4.10;;
26977;SDS011;56314;48.088;11.642;2023-05-21T06:45:57;4.45;;;4.03;;
26977;SDS011;56314;48.088;11.642;2023-05-21T06:48:22;6.93;;;4.60;;
26977;SDS011;56314;48.088;11.642;2023-05-21T06:50:48;5.57;;;4.30;;
26977;SDS011;56314;48.088;11.642;2023-05-21T06:53:13;6.32;;;4.68;;
26977;SDS011;56314;48.088;11.642;2023-05-21T06:55:40;5.70;;;4.18;;
26977;SDS011;56314;48.088;11.642;2023-05-21T06:58:12;5.72;;;4.45;;
26977;SDS011;56314;48.088;11.642;2023-05-21T07:00:37;4.85;;;4.35;;
26977;SDS011;56314;48.088;11.642;2023-05-21T07:03:02;5.28;;;4.22;;
26977;SDS011;56314;48.088;11.642;2023-05-21T07:05:28;6.53;;;4.72;;
26977;SDS011;56314;48.088;11.642;2023-05-21T07:07:53;6.53;;;4.45;;
26977;SDS011;56314;48.088;11.642;2023-05-21T07:10:19;5.55;;;4.30;;
26977;SDS011;56314;48.088;11.642;2023-05-21T07:12:44;7.85;;;4.65;;
26977;SDS011;56314;48.088;11.642;2023-05-21T07:15:09;4.93;;;4.38;;
26977;SDS011;56314;48.088;11.642;2023-05-21T07:17:35;5.22;;;4.47;;
26977;SDS011;56314;48.088;11.642;2023-05-21T07:20:01;5.80;;;4.80;;
26977;SDS011;56314;48.088;11.642;2023-05-21T07:22:30;7.82;;;4.80;;
26977;SDS011;56314;48.088;11.642;2023-05-21T07:24:55;7.80;;;4.07;;
26977;SDS011;56314;48.088;11.642;2023-05-21T07:27:21;5.32;;;4.13;;
26977;SDS011;56314;48.088;11.642;2023-05-21T07:29:46;5.25;;;4.30;;
26977;SDS011;56314;48.088;11.642;2023-05-21T07:32:12;7.82;;;4.68;;
26977;SDS011;56314;48.088;11.642;2023-05-21T07:34:37;6.55;;;4.60;;
26977;SDS011;56314;48.088;11.642;2023-05-21T07:37:02;7.05;;;5.03;;
26977;SDS011;56314;48.088;11.642;2023-05-21T07:39:28;5.55;;;4.30;;
26977;SDS011;56314;48.088;11.642;2023-05-21T07:41:53;5.82;;;4.80;;
26977;SDS011;56314;48.088;11.642;2023-05-21T07:44:19;6.00;;;4.40;;
26977;SDS011;56314;48.088;11.642;2023-05-21T07:46:44;5.63;;;4.38;;
26977;SDS011;56314;48.088;11.642;2023-05-21T07:49:09;6.47;;;4.72;;
26977;SDS011;56314;48.088;11.642;2023-05-21T07:51:40;5.05;;;4.47;;
26977;SDS011;56314;48.088;11.642;2023-05-21T07:54:06;7.57;;;5.10;;
26977;SDS011;56314;48.088;11.642;2023-05-21T07:56:31;7.45;;;4.55;;
26977;SDS011;56314;48.088;11.642;2023-05-21T07:58:57;6.50;;;4.78;;
26977;SDS011;56314;48.088;11.642;2023-05-21T08:01:22;5.30;;;4.57;;
26977;SDS011;56314;48.088;11.642;2023-05-21T08:03:47;6.57;;;5.30;;
26977;SDS011;56314;48.088;11.642;2023-05-21T08:06:13;6.10;;;5.03;;
26977;SDS011;56314;48.088;11.642;2023-05-21T08:08:38;7.43;;;5.40;;
26977;SDS011;56314;48.088;11.642;2023-05-21T08:11:03;6.18;;;5.07;;
26977;SDS011;56314;48.088;11.642;2023-05-21T08:13:29;6.60;;;5.03;;
26977;SDS011;56314;48.088;11.642;2023-05-21T08:15:54;8.05;;;5.63;;
26977;SDS011;56314;48.088;11.642;2023-05-21T08:18:20;5.35;;;4.50;;
26977;SDS011;56314;48.088;11.642;2023-05-21T08:20:47;7.00;;;5.07;;
26977;SDS011;56314;48.088;11.642;2023-05-21T08:23:14;6.13;;;4.72;;
26977;SDS011;56314;48.088;11.642;2023-05-21T08:25:39;8.60;;;5.25;;
26977;SDS011;56314;48.088;11.642;2023-05-21T08:28:05;7.97;;;5.10;;
26977;SDS011;56314;48.088;11.642;2023-05-21T08:30:31;5.78;;;4.80;;
26977;SDS011;56314;48.088;11.642;2023-05-21T08:32:56;7.38;;;5.13;;
26977;SDS011;56314;48.088;11.642;2023-05-21T08:35:22;6.22;;;4.95;;
26977;SDS011;56314;48.088;11.642;2023-05-21T08:37:47;6.47;;;5.07;;
26977;SDS011;56314;48.088;11.642;2023-05-21T08:40:13;6.45;;;4.68;;
26977;SDS011;56314;48.088;11.642;2023-05-21T08:42:41;7.55;;;5.05;;
26977;SDS011;56314;48.088;11.642;2023-05-21T08:45:12;6.00;;;4.70;;
26977;SDS011;56314;48.088;11.642;2023-05-21T08:47:42;6.70;;;4.75;;
26977;SDS011;56314;48.088;11.642;2023-05-21T08:50:08;7.50;;;5.00;;
26977;SDS011;56314;48.088;11.642;2023-05-21T08:52:35;12.52;;;5.30;;
26977;SDS011;56314;48.088;11.642;2023-05-21T08:55:02;7.80;;;5.68;;
26977;SDS011;56314;48.088;11.642;2023-05-21T08:57:28;6.78;;;5.15;;
26977;SDS011;56314;48.088;11.642;2023-05-21T08:59:55;7.18;;;5.03;;
26977;SDS011;56314;48.088;11.642;2023-05-21T09:02:21;7.05;;;5.47;;
26977;SDS011;56314;48.088;11.642;2023-05-21T09:04:48;8.98;;;5.13;;
26977;SDS011;56314;48.088;11.642;2023-05-21T09:07:20;7.53;;;4.90;;
26977;SDS011;56314;48.088;11.642;2023-05-21T09:09:55;7.85;;;5.10;;
26977;SDS011;56314;48.088;11.642;2023-05-21T09:12:22;7.80;;;5.25;;
26977;SDS011;56314;48.088;11.642;2023-05-21T09:14:51;6.00;;;4.82;;
26977;SDS011;56314;48.088;11.642;2023-05-21T09:17:17;7.20;;;5.32;;
26977;SDS011;56314;48.088;11.642;2023-05-21T09:25:10;6.43;;;4.95;;
26977;SDS011;56314;48.088;11.642;2023-05-21T09:27:37;5.38;;;4.85;;
26977;SDS011;56314;48.088;11.642;2023-05-21T09:30:03;8.20;;;5.28;;
26977;SDS011;56314;48.088;11.642;2023-05-21T09:32:32;5.45;;;4.65;;
26977;SDS011;56314;48.088;11.642;2023-05-21T09:35:01;6.53;;;4.88;;
26977;SDS011;56314;48.088;11.642;2023-05-21T09:37:40;6.88;;;4.65;;
26977;SDS011;56314;48.088;11.642;2023-05-21T09:40:13;4.65;;;4.13;;
26977;SDS011;56314;48.088;11.642;2023-05-21T09:42:39;5.20;;;4.30;;
26977;SDS011;56314;48.088;11.642;2023-05-21T09:45:09;5.45;;;4.38;;
26977;SDS011;56314;48.088;11.642;2023-05-21T09:47:41;5.50;;;4.45;;
26977;SDS011;56314;48.088;11.642;2023-05-21T09:50:10;7.30;;;4.65;;
26977;SDS011;56314;48.088;11.642;2023-05-21T09:52:36;6.85;;;5.05;;
26977;SDS011;56314;48.088;11.642;2023-05-21T09:55:05;7.97;;;4.68;;
26977;SDS011;56314;48.088;11.642;2023-05-21T09:57:39;5.75;;;4.47;;
26977;SDS011;56314;48.088;11.642;2023-05-21T10:00:21;4.68;;;4.20;;
26977;SDS011;56314;48.088;11.642;2023-05-21T10:02:48;5.88;;;4.25;;
26977;SDS011;56314;48.088;11.642;2023-05-21T10:05:34;8.13;;;4.70;;
26977;SDS011;56314;48.088;11.642;2023-05-21T10:08:02;6.78;;;4.90;;
26977;SDS011;56314;48.088;11.642;2023-05-21T10:10:28;5.88;;;4.32;;
26977;SDS011;56314;48.088;11.642;2023-05-21T10:12:58;4.75;;;4.25;;
26977;SDS011;56314;48.088;11.642;2023-05-21T10:15:25;6.82;;;5.30;;
26977;SDS011;56314;48.088;11.642;2023-05-21T10:17:53;5.88;;;4.50;;
26977;SDS011;56314;48.088;11.642;2023-05-21T10:20:20;6.53;;;4.60;;
26977;SDS011;56314;48.088;11.642;2023-05-21T10:22:46;5.18;;;4.43;;
26977;SDS011;56314;48.088;11.642;2023-05-21T10:25:12;5.07;;;4.60;;
26977;SDS011;56314;48.088;11.642;2023-05-21T10:27:37;8.55;;;5.20;;
26977;SDS011;56314;48.088;11.642;2023-05-21T10:30:03;5.78;;;5.28;;
26977;SDS011;56314;48.088;11.642;2023-05-21T10:32:31;4.72;;;4.18;;
26977;SDS011;56314;48.088;11.642;2023-05-21T10:34:57;5.68;;;4.88;;
26977;SDS011;56314;48.088;11.642;2023-05-21T10:37:24;7.93;;;4.85;;
26977;SDS011;56314;48.088;11.642;2023-05-21T10:39:50;6.47;;;4.95;;
26977;SDS011;56314;48.088;11.642;2023-05-21T10:49:56;6.05;;;4.60;;
26977;SDS011;56314;48.088;11.642;2023-05-21T10:54:56;4.57;;;4.18;;
26977;SDS011;56314;48.088;11.642;2023-05-21T10:57:33;6.32;;;4.53;;
26977;SDS011;56314;48.088;11.642;2023-05-21T11:00:09;4.53;;;4.07;;
26977;SDS011;56314;48.088;11.642;2023-05-21T11:02:36;5.10;;;4.53;;
26977;SDS011;56314;48.088;11.642;2023-05-21T11:05:02;5.20;;;4.18;;
26977;SDS011;56314;48.088;11.642;2023-05-21T11:13:11;4.45;;;3.97;;
26977;SDS011;56314;48.088;11.642;2023-05-21T11:21:03;5.07;;;4.53;;
26977;SDS011;56314;48.088;11.642;2023-05-21T11:29:12;5.03;;;4.38;;
26977;SDS011;56314;48.088;11.642;2023-05-21T11:31:40;5.30;;;4.45;;
26977;SDS011;56314;48.088;11.642;2023-05-21T11:39:45;4.68;;;3.92;;
26977;SDS011;56314;48.088;11.642;2023-05-21T11:42:33;6.28;;;4.63;;
26977;SDS011;56314;48.088;11.642;2023-05-21T11:45:03;6.10;;;4.53;;
26977;SDS011;56314;48.088;11.642;2023-05-21T11:47:29;6.43;;;4.35;;
26977;SDS011;56314;48.088;11.642;2023-05-21T11:49:56;6.50;;;4.22;;
26977;SDS011;56314;48.088;11.642;2023-05-21T11:52:23;5.40;;;4.43;;
26977;SDS011;56314;48.088;11.642;2023-05-21T11:54:51;5.05;;;4.32;;
26977;SDS011;56314;48.088;11.642;2023-05-21T11:57:19;5.03;;;4.47;;
26977;SDS011;56314;48.088;11.642;2023-05-21T11:59:46;5.45;;;4.68;;
26977;SDS011;56314;48.088;11.642;2023-05-21T12:02:16;4.90;;;4.40;;
26977;SDS011;56314;48.088;11.642;2023-05-21T12:04:43;7.45;;;4.50;;
26977;SDS011;56314;48.088;11.642;2023-05-21T12:07:09;4.97;;;4.47;;
26977;SDS011;56314;48.088;11.642;2023-05-21T12:09:55;4.55;;;4.05;;
26977;SDS011;56314;48.088;11.642;2023-05-21T12:12:21;5.15;;;4.45;;
26977;SDS011;56314;48.088;11.642;2023-05-21T12:14:49;4.78;;;4.10;;
26977;SDS011;56314;48.088;11.642;2023-05-21T12:17:17;7.60;;;5.38;;
26977;SDS011;56314;48.088;11.642;2023-05-21T12:19:44;6.72;;;4.40;;
26977;SDS011;56314;48.088;11.642;2023-05-21T12:22:10;5.93;;;4.13;;
26977;SDS011;56314;48.088;11.642;2023-05-21T12:24:37;4.90;;;4.25;;
26977;SDS011;56314;48.088;11.642;2023-05-21T12:27:03;5.63;;;4.30;;
26977;SDS011;56314;48.088;11.642;2023-05-21T12:29:34;4.10;;;3.70;;
26977;SDS011;56314;48.088;11.642;2023-05-21T12:32:01;5.47;;;4.40;;
26977;SDS011;56314;48.088;11.642;2023-05-21T12:34:36;5.80;;;4.25;;
26977;SDS011;56314;48.088;11.642;2023-05-21T12:37:20;5.80;;;4.18;;
26977;SDS011;56314;48.088;11.642;2023-05-21T12:39:51;4.75;;;4.13;;
26977;SDS011;56314;48.088;11.642;2023-05-21T12:42:24;5.38;;;4.20;;
26977;SDS011;56314;48.088;11.642;2023-05-21T12:45:06;5.18;;;3.92;;
26977;SDS011;56314;48.088;11.642;2023-05-21T12:47:33;4.53;;;4.13;;
26977;SDS011;56314;48.088;11.642;2023-05-21T12:50:02;5.75;;;4.22;;
26977;SDS011;56314;48.088;11.642;2023-05-21T12:52:32;4.55;;;4.15;;
26977;SDS011;56314;48.088;11.642;2023-05-21T12:54:57;4.50;;;4.03;;
26977;SDS011;56314;48.088;11.642;2023-05-21T12:57:27;5.22;;;4.20;;
26977;SDS011;56314;48.088;11.642;2023-05-21T13:00:00;6.30;;;4.18;;
26977;SDS011;56314;48.088;11.642;2023-05-21T13:02:27;5.03;;;4.32;;
26977;SDS011;56314;48.088;11.642;2023-05-21T13:04:56;4.50;;;4.10;;
26977;SDS011;56314;48.088;11.642;2023-05-21T13:07:22;4.60;;;4.20;;
26977;SDS011;56314;48.088;11.642;2023-05-21T13:09:48;4.78;;;4.28;;
26977;SDS011;56314;48.088;11.642;2023-05-21T13:12:16;5.05;;;4.03;;
26977;SDS011;56314;48.088;11.642;2023-05-21T13:14:42;5.18;;;4.05;;
26977;SDS011;56314;48.088;11.642;2023-05-21T13:17:07;5.07;;;4.57;;
26977;SDS011;56314;48.088;11.642;2023-05-21T13:19:34;6.30;;;4.50;;
26977;SDS011;56314;48.088;11.642;2023-05-21T13:21:59;4.75;;;4.35;;
26977;SDS011;56314;48.088;11.642;2023-05-21T13:24:25;5.55;;;3.95;;
26977;SDS011;56314;48.088;11.642;2023-05-21T13:26:50;5.40;;;4.88;;
26977;SDS011;56314;48.088;11.642;2023-05-21T13:29:16;5.93;;;4.22;;
26977;SDS011;56314;48.088;11.642;2023-05-21T13:31:41;5.15;;;4.20;;
26977;SDS011;56314;48.088;11.642;2023-05-21T13:34:08;5.80;;;4.28;;
26977;SDS011;56314;48.088;11.642;2023-05-21T13:36:35;4.88;;;4.30;;
26977;SDS011;56314;48.088;11.642;2023-05-21T13:39:00;5.35;;;4.28;;
26977;SDS011;56314;48.088;11.642;2023-05-21T13:41:25;4.97;;;4.05;;
26977;SDS011;56314;48.088;11.642;2023-05-21T13:43:51;4.55;;;4.10;;
26977;SDS011;56314;48.088;11.642;2023-05-21T13:46:16;5.63;;;4.43;;
26977;SDS011;56314;48.088;11.642;2023-05-21T13:48:41;6.10;;;4.53;;
26977;SDS011;56314;48.088;11.642;2023-05-21T13:51:07;6.47;;;4.15;;
26977;SDS011;56314;48.088;11.642;2023-05-21T13:53:33;8.02;;;4.57;;
26977;SDS011;56314;48.088;11.642;2023-05-21T13:55:58;5.60;;;4.40;;
26977;SDS011;56314;48.088;11.642;2023-05-21T13:58:23;5.25;;;4.13;;
26977;SDS011;56314;48.088;11.642;2023-05-21T14:00:49;5.53;;;4.30;;
26977;SDS011;56314;48.088;11.642;2023-05-21T14:03:14;5.00;;;4.05;;
26977;SDS011;56314;48.088;11.642;2023-05-21T14:05:40;6.40;;;4.47;;
26977;SDS011;56314;48.088;11.642;2023-05-21T14:08:05;5.35;;;4.70;;
26977;SDS011;56314;48.088;11.642;2023-05-21T14:10:32;7.32;;;4.43;;
26977;SDS011;56314;48.088;11.642;2023-05-21T14:12:57;5.65;;;4.45;;
26977;SDS011;56314;48.088;11.642;2023-05-21T14:15:22;6.13;;;4.40;;
26977;SDS011;56314;48.088;11.642;2023-05-21T14:17:48;5.40;;;4.13;;
26977;SDS011;56314;48.088;11.642;2023-05-21T14:20:13;4.70;;;4.20;;
26977;SDS011;56314;48.088;11.642;2023-05-21T14:22:38;6.32;;;4.75;;
26977;SDS011;56314;48.088;11.642;2023-05-21T14:25:04;4.50;;;3.75;;
26977;SDS011;56314;48.088;11.642;2023-05-21T14:27:29;5.63;;;4.40;;
26977;SDS011;56314;48.088;11.642;2023-05-21T14:29:55;4.38;;;3.97;;
26977;SDS011;56314;48.088;11.642;2023-05-21T14:32:20;5.60;;;3.95;;
26977;SDS011;56314;48.088;11.642;2023-05-21T14:34:45;4.88;;;4.13;;
26977;SDS011;56314;48.088;11.642;2023-05-21T14:37:11;6.20;;;4.18;;
26977;SDS011;56314;48.088;11.642;2023-05-21T14:39:36;4.40;;;3.70;;
26977;SDS011;56314;48.088;11.642;2023-05-21T14:42:02;5.47;;;4.15;;
26977;SDS011;56314;48.088;11.642;2023-05-21T14:44:28;5.60;;;3.92;;
26977;SDS011;56314;48.088;11.642;2023-05-21T14:46:54;4.72;;;3.78;;
26977;SDS011;56314;48.088;11.642;2023-05-21T14:49:19;3.90;;;3.58;;
26977;SDS011;56314;48.088;11.642;2023-05-21T14:51:45;5.20;;;4.05;;
26977;SDS011;56314;48.088;11.642;2023-05-21T14:54:11;5.45;;;4.13;;
26977;SDS011;56314;48.088;11.642;2023-05-21T14:56:37;5.68;;;4.68;;
26977;SDS011;56314;48.088;11.642;2023-05-21T14:59:02;7.82;;;6.32;;
26977;SDS011;56314;48.088;11.642;2023-05-21T15:01:28;9.52;;;5.25;;
26977;SDS011;56314;48.088;11.642;2023-05-21T15:03:53;5.18;;;4.10;;
26977;SDS011;56314;48.088;11.642;2023-05-21T15:06:20;5.95;;;4.22;;
26977;SDS011;56314;48.088;11.642;2023-05-21T15:08:46;4.32;;;3.92;;